Terminal Aerodrome Forecast
Issued by NWS

Home | Current Version | Previous Version | Text Only | Print | Product List | Glossary On
Versions: 1 2 3 4 5 6 7 8 9 10 11 12 13 14 15
000
FTAK31 PAFA 261133
TAFAFA
TAF
PAFA 261133Z 2612/2718 VRB02KT P6SM SCT040 SCT090 BKN120
     FM261300 VRB02KT P6SM MIFG SCT010 BKN100
     FM261400 VRB02KT 2SM BR SCT005 BKN012 OVC100
      TEMPO 2614/2618 1/4SM FG BKN005 OVC012
     FM261900 VRB03KT P6SM BKN100
     FM271000 VRB03KT P6SM -SHRASN BKN050 BKN100=

USA.gov is the U.S. government's official web portal to all federal, state and local government web resources and services.